Time;durP1;ratioP1;P1;durP2;ratioP2;P2;SDS_P1;SDS_P2;PMS_P1;PMS_P2;Temp;Humidity;BMP_temperature;BMP_pressure;BME280_temperature;BME280_humidity;BME280_pressure;Samples;Min_cycle;Max_cycle;Signal;HPM_P1;HPM_P2
2022/04/16 00:03:55;;;;;;;;;;;8.80;47.80;;;7.07;52.25;102737.00;8316516;28;20020;-87
2022/04/16 00:08:19;;;;;;;;;;;8.70;47.80;;;6.87;52.12;102731.94;8297740;28;20016;-87
2022/04/16 00:12:40;;;;;;;;;;;8.70;47.60;;;6.91;52.37;102731.91;8321220;28;20508;-87
2022/04/16 00:17:02;;;;;;;;;;;8.70;47.90;;;6.79;52.05;102719.88;8282502;28;20409;-88
2022/04/16 00:21:24;;;;;;;;;;;8.60;47.80;;;6.92;52.13;102749.22;8293289;28;20423;-87
2022/04/16 00:25:47;;;;;;;;;;;8.60;47.70;;;6.87;52.19;102744.06;8291817;28;20365;-87
2022/04/16 00:30:09;;;;;;;;;;;8.50;47.60;;;6.81;52.23;102741.53;8283062;28;20461;-87
2022/04/16 00:34:32;;;;;;;;;;;8.60;47.80;;;6.90;52.52;102751.84;8292592;28;20007;-87
2022/04/16 00:38:54;;;;;;;;;;;8.30;47.50;;;6.86;52.07;102766.59;8281808;28;20024;-87
2022/04/16 00:43:23;;;;;;;;;;;8.50;47.60;;;6.60;51.93;102725.19;8285548;28;20016;-87
2022/04/16 00:47:45;;;;;;;;;;;8.70;47.60;;;6.76;51.90;102758.88;8291997;28;20007;-88
2022/04/16 00:52:08;;;;;;;;;;;8.40;47.40;;;6.56;52.14;102738.19;8309194;28;20366;-88
2022/04/16 00:56:30;;;;;;;;;;;8.40;47.50;;;6.64;52.43;102749.41;8279835;28;20004;-88
2022/04/16 01:18:02;;;;;;;;;;;8.30;47.30;;;6.32;52.27;102760.84;8334861;28;20000;-88
2022/04/16 01:22:29;;;;;;;;;;;8.00;47.40;;;6.33;52.37;102769.47;8300662;28;20016;-88
2022/04/16 01:26:51;;;;;;;;;;;8.20;47.60;;;6.38;52.12;102798.88;8279379;28;20007;-88
2022/04/16 01:31:13;;;;;;;;;;;8.00;47.40;;;6.27;52.35;102792.88;8292421;28;20024;-88
2022/04/16 01:35:35;;;;;;;;;;;8.10;47.50;;;6.16;52.25;102787.72;8312346;28;20000;-88
2022/04/16 01:40:01;;;;;;;;;;;8.00;47.40;;;6.23;52.10;102804.97;8306567;28;19921;-88
2022/04/16 01:44:23;;;;;;;;;;;8.00;47.50;;;6.01;52.69;102773.03;8285404;28;20004;-88
2022/04/16 01:48:45;;;;;;;;;;;8.00;47.90;;;6.11;52.32;102795.50;8303871;28;20470;-88
2022/04/16 01:53:06;;;;;;;;;;;7.90;47.60;;;6.23;52.20;102809.28;8290999;28;20008;-88
2022/04/16 01:57:28;;;;;;;;;;;7.90;47.70;;;6.16;52.02;102795.50;8298442;28;20005;-88
2022/04/16 02:01:50;;;;;;;;;;;7.90;47.80;;;6.20;52.53;102794.59;8310365;28;19921;-88
2022/04/16 02:06:12;;;;;;;;;;;7.90;47.70;;;6.13;52.53;102788.59;8303743;28;20008;-87
2022/04/16 02:10:34;;;;;;;;;;;7.90;47.90;;;6.27;52.29;102813.63;8304055;28;19923;-88
2022/04/16 02:14:56;;;;;;;;;;;8.00;47.80;;;6.18;52.39;102796.31;8300404;28;20013;-88
2022/04/16 02:19:17;;;;;;;;;;;8.00;48.10;;;6.07;52.37;102785.13;8321475;28;20003;-88
2022/04/16 02:23:39;;;;;;;;;;;7.80;47.90;;;6.19;52.42;102814.50;8303724;28;20453;-87
2022/04/16 02:28:01;;;;;;;;;;;7.90;47.80;;;6.12;52.03;102794.63;8298379;28;20452;-88
2022/04/16 02:32:24;;;;;;;;;;;7.90;47.80;;;6.18;52.04;102806.69;8307474;28;20043;-88
2022/04/16 02:36:46;;;;;;;;;;;8.00;48.00;;;6.18;52.39;102811.88;8296952;28;20008;-88
2022/04/16 02:41:08;;;;;;;;;;;8.00;48.00;;;6.18;52.49;102817.09;8287039;28;19928;-88
2022/04/16 02:50:11;;;;;;;;;;;7.90;47.90;;;6.09;52.37;102807.59;8308751;28;20020;-88
2022/04/16 02:54:33;;;;;;;;;;;7.90;47.90;;;6.23;52.32;102836.09;8306131;28;20332;-88
2022/04/16 02:58:55;;;;;;;;;;;8.00;48.10;;;5.96;52.27;102793.78;8310079;28;20004;-88
2022/04/16 03:03:17;;;;;;;;;;;7.90;48.30;;;6.14;52.81;102833.53;8315017;28;19928;-87
2022/04/16 03:07:39;;;;;;;;;;;8.00;48.20;;;6.12;52.45;102836.13;8316807;28;20007;-88
2022/04/16 03:12:01;;;;;;;;;;;7.90;48.20;;;6.11;52.28;102837.00;8302192;28;20003;-88
2022/04/16 03:21:03;;;;;;;;;;;8.00;48.20;;;6.24;52.62;102860.28;8324715;28;20035;-87
2022/04/16 03:25:27;;;;;;;;;;;8.00;48.10;;;6.13;52.40;102856.03;8291891;28;20024;-88
2022/04/16 03:29:49;;;;;;;;;;;8.00;48.20;;;6.10;52.71;102844.78;8303498;28;20008;-88
2022/04/16 03:34:11;;;;;;;;;;;8.00;48.10;;;6.23;52.47;102872.41;8316490;28;20012;-88
2022/04/16 03:38:33;;;;;;;;;;;7.70;48.20;;;6.12;52.60;102854.28;8307209;28;20445;-87
2022/04/16 03:42:59;;;;;;;;;;;8.30;48.30;;;6.17;52.29;102855.13;8306018;28;19927;-87
2022/04/16 03:47:21;;;;;;;;;;;7.90;48.70;;;6.18;52.50;102875.03;8299705;28;19997;-88
2022/04/16 03:51:44;;;;;;;;;;;8.00;48.60;;;6.21;52.70;102889.69;8317159;28;20008;-88
2022/04/16 04:00:46;;;;;;;;;;;8.10;48.30;;;6.17;52.46;102896.63;8333457;28;19956;-87
2022/04/16 04:05:08;;;;;;;;;;;8.00;49.00;;;6.04;52.73;102887.16;8288123;28;20007;-87
2022/04/16 04:09:31;;;;;;;;;;;8.00;48.20;;;6.13;52.54;102894.03;8294377;28;20468;-87
2022/04/16 04:13:53;;;;;;;;;;;8.00;48.30;;;6.22;52.72;102916.53;8315458;28;19917;-87
2022/04/16 04:18:15;;;;;;;;;;;8.00;48.20;;;6.17;53.01;102901.81;8292324;28;20545;-88
2022/04/16 04:22:40;;;;;;;;;;;8.00;48.60;;;6.16;53.06;102894.91;8305510;28;19927;-88
2022/04/16 04:27:02;;;;;;;;;;;8.10;48.50;;;6.32;52.45;102924.31;8307866;28;19988;-87
2022/04/16 04:31:24;;;;;;;;;;;8.10;48.60;;;6.31;52.64;102921.69;8298453;28;20016;-87
2022/04/16 04:35:46;;;;;;;;;;;8.20;48.00;;;6.38;52.72;102929.47;8301048;28;20004;-87
2022/04/16 04:40:08;;;;;;;;;;;8.10;48.50;;;6.38;53.05;102939.00;8284269;28;20003;-88
2022/04/16 04:44:30;;;;;;;;;;;8.20;48.50;;;6.41;52.75;102941.56;8280270;28;19928;-87
2022/04/16 04:48:51;;;;;;;;;;;8.20;48.00;;;6.17;52.81;102900.97;8293100;28;20051;-88
2022/04/16 04:53:13;;;;;;;;;;;8.10;48.20;;;6.40;53.07;102940.72;8291601;28;19999;-87
2022/04/16 04:57:35;;;;;;;;;;;8.30;48.30;;;6.54;52.95;102963.19;8284439;28;20000;-87
2022/04/16 05:01:57;;;;;;;;;;;8.10;48.10;;;6.45;52.54;102951.06;8293364;28;19931;-87
2022/04/16 05:06:18;;;;;;;;;;;8.30;48.20;;;6.58;52.70;102972.69;8281420;28;20031;-88
2022/04/16 05:10:40;;;;;;;;;;;8.40;48.30;;;6.53;52.99;102961.44;8283991;28;19924;-87
2022/04/16 05:15:03;;;;;;;;;;;8.40;48.00;;;6.47;52.70;102967.50;8287755;28;20012;-88
2022/04/16 05:19:25;;;;;;;;;;;8.40;48.30;;;6.56;53.04;102985.69;8301645;28;20015;-88
2022/04/16 05:23:47;;;;;;;;;;;8.40;47.70;;;6.60;53.33;102986.53;8279867;28;19927;-87
2022/04/16 05:28:12;;;;;;;;;;;8.40;48.30;;;6.51;52.96;102969.25;8311369;28;20015;-87
2022/04/16 05:32:35;;;;;;;;;;;8.30;48.00;;;6.61;52.95;102991.69;8302306;28;20015;-87
2022/04/16 05:36:57;;;;;;;;;;;8.40;48.50;;;6.58;53.30;102986.50;8301047;28;20387;-87
2022/04/16 05:41:19;;;;;;;;;;;8.50;48.40;;;6.62;52.97;102998.63;8303852;28;19927;-87
2022/04/16 05:45:40;;;;;;;;;;;8.40;48.90;;;6.65;52.74;103001.22;8299205;28;19917;-87
2022/04/16 05:50:02;;;;;;;;;;;8.50;48.50;;;6.64;52.78;103015.09;8308561;28;20468;-87
2022/04/16 05:54:24;;;;;;;;;;;8.50;48.90;;;6.61;53.04;103009.88;8292507;28;20333;-83
2022/04/16 05:58:46;;;;;;;;;;;8.50;48.70;;;6.61;52.73;103009.00;8306757;28;20016;-86
2022/04/16 06:03:08;;;;;;;;;;;8.50;48.70;;;6.68;53.00;103015.06;8292860;28;20016;-86
2022/04/16 06:07:30;;;;;;;;;;;8.50;49.00;;;6.74;53.20;103022.84;8300398;28;20008;-85
2022/04/16 06:11:52;;;;;;;;;;;8.50;48.60;;;6.74;52.75;103015.06;8300869;28;20016;-86
2022/04/16 06:16:14;;;;;;;;;;;8.60;48.60;;;6.87;52.74;103029.72;8297355;28;20024;-90
2022/04/16 06:20:36;;;;;;;;;;;8.50;48.50;;;6.85;52.77;103016.75;8302657;28;19921;-86
2022/04/16 06:24:58;;;;;;;;;;;8.70;48.80;;;6.94;53.23;103026.25;8314396;28;20012;-88
2022/04/16 06:29:20;;;;;;;;;;;8.70;48.30;;;6.92;53.24;103022.78;8293337;28;20000;-87
2022/04/16 06:33:42;;;;;;;;;;;8.80;48.60;;;6.98;52.89;103029.72;8308592;28;20012;-85
2022/04/16 06:38:04;;;;;;;;;;;8.70;49.00;;;7.00;53.06;103023.63;8303276;28;20000;-85
2022/04/16 06:42:26;;;;;;;;;;;8.80;49.20;;;7.13;53.14;103033.97;8299505;28;20024;-88
2022/04/16 06:46:50;;;;;;;;;;;8.90;49.00;;;7.22;53.28;103039.16;8299655;28;20000;-88
2022/04/16 06:51:12;;;;;;;;;;;8.90;48.60;;;7.23;53.10;103033.06;8291725;28;19999;-84
2022/04/16 06:55:34;;;;;;;;;;;9.00;48.30;;;7.21;52.61;103037.41;8288637;28;20407;-87
2022/04/16 06:59:55;;;;;;;;;;;9.00;48.00;;;7.07;52.87;103001.97;8325932;28;20016;-85
2022/04/16 07:04:17;;;;;;;;;;;9.10;48.60;;;6.85;52.85;102966.53;8292225;28;20342;-86
2022/04/16 07:08:39;;;;;;;;;;;9.10;47.90;;;7.26;52.66;103041.75;8280284;28;20331;-86
2022/04/16 07:13:01;;;;;;;;;;;9.20;48.00;;;7.26;52.87;103040.84;8288310;28;20047;-87
2022/04/16 07:17:23;;;;;;;;;;;9.10;48.10;;;7.37;52.80;103053.81;8303207;28;20016;-84
2022/04/16 07:21:44;;;;;;;;;;;9.20;48.00;;;7.43;52.88;103065.06;8295345;28;19921;-88
2022/04/16 07:26:06;;;;;;;;;;;9.20;47.90;;;7.47;53.09;103060.69;8303662;28;20157;-83
2022/04/16 07:30:28;;;;;;;;;;;9.30;47.80;;;7.45;52.90;103052.94;8313784;28;20016;-83
2022/04/16 07:34:50;;;;;;;;;;;9.30;47.80;;;7.60;52.82;103058.91;8315815;28;20008;-86
2022/04/16 07:39:13;;;;;;;;;;;9.50;47.80;;;7.83;52.77;103074.38;8308763;28;19924;-89
2022/04/16 07:43:35;;;;;;;;;;;9.50;47.80;;;7.91;52.80;103072.59;8290604;28;20008;-87
2022/04/16 07:47:56;;;;;;;;;;;9.60;47.60;;;7.86;52.84;103049.22;8295700;28;20011;-86
2022/04/16 07:52:18;;;;;;;;;;;9.70;47.50;;;7.98;52.55;103071.69;8315167;28;20011;-87
2022/04/16 07:56:40;;;;;;;;;;;9.60;47.30;;;7.93;52.76;103040.50;8310533;28;20007;-85
2022/04/16 08:01:02;;;;;;;;;;;9.90;47.40;;;8.20;52.44;103070.66;8291850;28;19927;-88
2022/04/16 08:05:24;;;;;;;;;;;10.00;47.20;;;8.28;53.10;103065.41;8313265;28;20432;-87
2022/04/16 08:09:46;;;;;;;;;;;10.00;46.70;;;8.30;52.59;103061.03;8314165;28;20007;-89
2022/04/16 08:14:07;;;;;;;;;;;10.20;47.10;;;8.40;52.46;103065.34;8318375;28;20008;-87
2022/04/16 08:18:29;;;;;;;;;;;10.20;47.10;;;8.62;52.88;103065.16;8297407;28;19917;-86
2022/04/16 08:22:52;;;;;;;;;;;10.30;47.10;;;8.70;52.75;103046.84;8284264;28;19921;-87
2022/04/16 08:27:13;;;;;;;;;;;10.60;47.10;;;9.15;52.20;103089.78;8312253;28;20038;-87
2022/04/16 08:31:35;;;;;;;;;;;10.80;45.10;;;9.21;52.41;103066.28;8303138;28;20453;-83
2022/04/16 08:35:57;;;;;;;;;;;11.00;46.80;;;9.51;52.50;103085.88;8297736;28;19921;-78
2022/04/16 08:40:20;;;;;;;;;;;11.20;46.10;;;9.80;52.35;103094.19;8278210;28;19917;-78
2022/04/16 08:44:41;;;;;;;;;;;11.40;45.60;;;9.92;52.32;103073.16;8315402;28;20024;-78
2022/04/16 08:49:03;;;;;;;;;;;11.60;45.50;;;10.12;52.03;103078.94;8305869;28;20020;-87
2022/04/16 08:53:27;;;;;;;;;;;11.80;44.30;;;10.14;52.00;103069.31;8274532;28;22608;-84
2022/04/16 08:57:49;;;;;;;;;;;12.00;42.80;;;10.24;51.54;103090.09;8296679;28;20012;-89
2022/04/16 09:02:11;;;;;;;;;;;12.00;44.40;;;10.19;51.39;103090.16;8286511;28;19928;-86
2022/04/16 09:06:32;;;;;;;;;;;12.00;42.70;;;10.08;51.95;103064.22;8286604;28;20016;-84
2022/04/16 09:11:04;;;;;;;;;;;12.00;43.90;;;10.33;51.74;103076.91;8285305;28;19917;-83
2022/04/16 09:15:28;;;;;;;;;;;12.10;44.10;;;10.39;51.35;103063.75;8294327;28;19917;-84
2022/04/16 09:19:57;;;;;;;;;;;12.20;43.80;;;10.51;51.26;103053.09;8301776;28;20016;-85
2022/04/16 09:24:18;;;;;;;;;;;12.30;44.70;;;10.78;51.30;103061.34;8286495;28;19929;-84
2022/04/16 09:28:46;;;;;;;;;;;12.40;44.80;;;11.07;51.54;103076.44;8319893;28;20008;-86
2022/04/16 09:33:08;;;;;;;;;;;12.70;42.90;;;11.18;51.56;103063.16;8277761;28;20004;-85
2022/04/16 09:37:33;;;;;;;;;;;12.90;43.40;;;11.43;50.94;103068.78;8302747;28;19995;-88
2022/04/16 09:41:55;;;;;;;;;;;13.10;39.40;;;11.52;50.73;103066.81;8304996;28;20481;-92
2022/04/16 09:46:17;;;;;;;;;;;13.20;41.90;;;11.43;50.75;103050.47;8292667;28;19984;-85
2022/04/16 09:50:41;;;;;;;;;;;13.30;40.30;;;11.45;50.71;103038.19;8307950;28;20004;-87
2022/04/16 09:55:04;;;;;;;;;;;13.30;41.10;;;11.68;50.11;103061.25;8296507;28;19917;-84
2022/04/16 09:59:27;;;;;;;;;;;13.50;43.30;;;11.76;49.82;103063.69;8312596;28;19992;-88
2022/04/16 10:03:51;;;;;;;;;;;13.60;42.20;;;11.98;50.15;103083.28;8307096;28;19935;-85
2022/04/16 10:08:13;;;;;;;;;;;13.70;41.80;;;12.09;50.07;103073.41;8309163;28;20003;-85
2022/04/16 10:17:42;;;;;;;;;;;14.00;41.50;;;12.34;49.85;103060.59;8307761;28;20012;-85
2022/04/16 10:22:04;;;;;;;;;;;14.10;40.70;;;12.65;50.06;103070.28;8314364;28;19921;-85
2022/04/16 10:26:37;;;;;;;;;;;14.30;43.00;;;12.63;49.51;103043.22;8288592;28;20000;-86
2022/04/16 10:30:59;;;;;;;;;;;14.40;41.90;;;12.89;50.05;103057.41;8298220;28;20008;-86
2022/04/16 10:35:20;;;;;;;;;;;14.60;40.70;;;13.05;49.70;103066.59;8292739;28;20015;-86
2022/04/16 10:39:43;;;;;;;;;;;14.70;39.90;;;13.02;49.77;103050.94;8329388;28;19931;-85
2022/04/16 10:44:08;;;;;;;;;;;14.70;41.60;;;13.21;49.95;103073.13;8302044;28;19925;-84
2022/04/16 10:48:41;;;;;;;;;;;14.90;41.90;;;13.25;49.93;103051.13;8327506;28;20075;-85
2022/04/16 10:53:03;;;;;;;;;;;15.10;38.30;;;13.38;49.82;103059.53;8306495;28;20016;-84
2022/04/16 10:57:25;;;;;;;;;;;15.10;39.80;;;13.47;49.60;103054.03;8304823;28;19932;-84
2022/04/16 11:01:53;;;;;;;;;;;15.10;40.70;;;13.55;49.79;103050.28;8306113;28;20389;-86
2022/04/16 11:06:16;;;;;;;;;;;15.30;39.80;;;13.60;49.58;103045.75;8299693;28;20003;-85
2022/04/16 11:10:38;;;;;;;;;;;15.30;40.00;;;13.76;49.68;103054.03;8303961;28;19928;-85
2022/04/16 11:15:00;;;;;;;;;;;15.50;40.40;;;13.95;49.74;103058.63;8317018;28;20008;-85
2022/04/16 11:19:22;;;;;;;;;;;15.60;40.40;;;14.09;49.62;103058.19;8300611;28;20000;-85
2022/04/16 11:23:49;;;;;;;;;;;15.60;40.40;;;14.19;49.53;103065.78;8287234;28;19922;-84
2022/04/16 11:37:32;;;;;;;;;;;15.90;40.70;;;14.25;49.40;103055.06;8296696;28;19999;-85
2022/04/16 11:41:59;;;;;;;;;;;16.00;40.60;;;14.30;49.17;103051.38;8292311;28;20105;-81
2022/04/16 11:46:22;;;;;;;;;;;16.00;39.30;;;14.33;49.07;103048.63;8307885;28;20039;-82
2022/04/16 11:50:44;;;;;;;;;;;16.10;38.00;;;14.38;48.76;103056.38;8317919;28;19924;-81
2022/04/16 11:55:21;;;;;;;;;;;16.10;38.90;;;14.44;48.60;103043.03;8307584;28;20008;-82
2022/04/16 11:59:43;;;;;;;;;;;16.20;38.50;;;14.48;48.76;103022.75;8297473;28;19943;-80
2022/04/16 12:04:08;;;;;;;;;;;16.20;39.00;;;14.55;48.31;103047.94;8304628;28;19932;-83
2022/04/16 12:08:30;;;;;;;;;;;16.30;36.00;;;14.55;48.34;103048.78;8297060;28;19992;-82
2022/04/16 12:12:54;;;;;;;;;;;16.30;36.90;;;14.64;48.42;103046.78;8309695;28;20007;-83
2022/04/16 12:17:24;;;;;;;;;;;16.30;36.60;;;14.70;48.27;103039.53;8315196;28;20354;-81
2022/04/16 12:21:46;;;;;;;;;;;16.40;39.30;;;14.90;48.46;103061.63;8321522;28;19925;-83
2022/04/16 12:26:09;;;;;;;;;;;16.50;37.50;;;14.78;48.43;103020.84;8309204;28;20016;-80
2022/04/16 12:30:32;;;;;;;;;;;16.60;37.20;;;14.97;47.90;103042.94;8308362;28;19999;-81
2022/04/16 12:34:53;;;;;;;;;;;16.50;37.70;;;15.06;48.15;103041.72;8315841;28;20012;-82
2022/04/16 12:39:16;;;;;;;;;;;16.70;36.70;;;15.00;47.44;103026.19;8303887;28;19921;-83
2022/04/16 12:43:38;;;;;;;;;;;16.80;38.10;;;15.16;47.38;103042.25;8316174;28;19925;-83
2022/04/16 12:48:00;;;;;;;;;;;16.80;35.20;;;15.07;47.68;103024.16;8310787;28;20000;-82
2022/04/16 12:52:23;;;;;;;;;;;16.80;36.80;;;15.16;47.55;103024.69;8320353;28;20016;-83
2022/04/16 12:56:47;;;;;;;;;;;16.80;36.10;;;15.10;46.71;103008.28;8292376;28;20013;-86
2022/04/16 13:01:09;;;;;;;;;;;16.90;38.50;;;15.10;46.67;103018.81;8285019;28;20012;-87
2022/04/16 13:05:32;;;;;;;;;;;16.90;37.10;;;15.13;46.22;103013.44;8312079;28;19927;-87
2022/04/16 13:09:54;;;;;;;;;;;16.90;37.40;;;15.23;46.07;103023.56;8305239;28;20008;-86
2022/04/16 13:14:16;;;;;;;;;;;16.90;35.90;;;15.10;45.49;103005.66;8314768;28;19996;-85
2022/04/16 13:18:38;;;;;;;;;;;16.90;38.00;;;15.15;45.76;103015.09;8296710;28;20003;-86
2022/04/16 13:23:03;;;;;;;;;;;16.90;37.20;;;15.15;45.75;102999.28;8298552;28;19931;-86
2022/04/16 13:27:24;;;;;;;;;;;16.90;35.10;;;15.14;45.74;102973.88;8299953;28;19921;-86
2022/04/16 13:31:47;;;;;;;;;;;16.90;37.00;;;15.41;45.90;103016.69;8301823;28;19921;-85
2022/04/16 13:36:08;;;;;;;;;;;17.00;37.20;;;15.41;45.73;103006.16;8297027;28;19947;-86
2022/04/16 13:45:13;;;;;;;;;;;17.00;32.20;;;15.42;45.32;102978.94;8306157;28;19924;-86
2022/04/16 13:49:35;;;;;;;;;;;17.20;32.30;;;15.57;45.08;103003.78;8292921;28;19943;-86
2022/04/16 13:54:01;;;;;;;;;;;17.20;36.20;;;15.53;45.17;102988.16;8281084;28;19922;-87
2022/04/16 13:58:22;;;;;;;;;;;17.20;31.70;;;15.51;44.84;102988.25;8299475;28;19921;-82
2022/04/16 14:02:44;;;;;;;;;;;17.10;33.90;;;15.43;45.10;102951.69;8291526;28;19921;-86
2022/04/16 14:07:06;;;;;;;;;;;17.10;34.80;;;15.43;44.87;102949.03;8294752;28;19940;-87
2022/04/16 14:11:28;;;;;;;;;;;17.10;34.70;;;15.52;44.30;102965.41;8298950;28;19917;-88
2022/04/16 14:15:51;;;;;;;;;;;17.10;37.20;;;15.51;44.63;102954.00;8292791;28;20000;-89
2022/04/16 14:20:13;;;;;;;;;;;17.10;35.00;;;15.58;44.69;102960.75;8283018;28;20525;-88
2022/04/16 14:24:37;;;;;;;;;;;17.10;33.60;;;15.51;44.47;102942.63;8303491;28;20300;-89
2022/04/16 14:28:59;;;;;;;;;;;17.10;34.50;;;15.63;44.25;102960.53;8280667;28;20433;-89
2022/04/16 14:33:21;;;;;;;;;;;17.10;34.10;;;15.61;44.32;102939.56;8309769;28;19917;-90
2022/04/16 14:37:42;;;;;;;;;;;17.20;36.30;;;15.70;44.67;102954.16;8291541;28;19932;-90
2022/04/16 14:42:06;;;;;;;;;;;17.20;34.60;;;15.63;44.42;102942.13;8318465;28;19921;-90
2022/04/16 14:46:28;;;;;;;;;;;17.20;37.00;;;15.71;44.64;102942.69;8301516;28;19921;-89
2022/04/16 14:50:50;;;;;;;;;;;17.30;36.70;;;15.69;44.76;102931.38;8309334;28;20004;-89
2022/04/16 14:55:12;;;;;;;;;;;17.40;34.60;;;15.79;44.04;102959.03;8308609;28;20008;-89
2022/04/16 14:59:34;;;;;;;;;;;17.30;34.90;;;15.70;44.43;102943.63;8301462;28;20353;-89
2022/04/16 15:03:56;;;;;;;;;;;17.40;35.10;;;15.68;44.57;102946.31;8285387;28;19951;-89
2022/04/16 15:08:17;;;;;;;;;;;17.20;35.60;;;15.68;44.25;102953.31;8287131;28;19927;-89
2022/04/16 15:12:39;;;;;;;;;;;17.30;37.40;;;15.70;44.29;102949.72;8298342;28;19917;-91
2022/04/16 15:17:01;;;;;;;;;;;17.30;37.20;;;15.63;44.43;102932.44;8298511;28;19925;-89
2022/04/16 15:21:23;;;;;;;;;;;17.30;36.30;;;15.65;44.14;102932.38;8307096;28;19919;-89
2022/04/16 15:25:47;;;;;;;;;;;17.20;35.80;;;15.74;44.14;102945.19;8294915;28;20020;-89
2022/04/16 15:30:09;;;;;;;;;;;17.30;36.20;;;15.67;44.32;102925.28;8300267;28;20020;-88
2022/04/16 15:34:31;;;;;;;;;;;17.30;33.80;;;15.65;43.94;102925.31;8307757;28;20012;-89
2022/04/16 15:38:53;;;;;;;;;;;17.20;35.10;;;15.59;43.96;102914.19;8318882;28;20319;-88
2022/04/16 15:43:14;;;;;;;;;;;17.20;31.70;;;15.54;43.63;102910.91;8312159;28;20069;-90
2022/04/16 15:47:36;;;;;;;;;;;17.10;35.50;;;15.43;43.15;102913.97;8317433;28;20385;-89
2022/04/16 15:51:57;;;;;;;;;;;17.10;32.40;;;15.46;43.52;102914.69;8298167;28;20356;-89
2022/04/16 15:56:19;;;;;;;;;;;17.00;34.40;;;15.44;43.52;102905.97;8313659;28;20385;-87
2022/04/16 16:00:41;;;;;;;;;;;17.00;33.50;;;15.31;43.25;102899.53;8280241;28;20000;-89
2022/04/16 16:05:07;;;;;;;;;;;16.80;36.50;;;15.21;42.78;102900.81;8282849;28;19935;-88
2022/04/16 16:09:29;;;;;;;;;;;16.90;35.50;;;15.13;42.99;102905.53;8295719;28;20073;-88
2022/04/16 16:13:51;;;;;;;;;;;16.70;35.70;;;15.18;42.95;102916.72;8291628;28;19987;-89
2022/04/16 16:18:13;;;;;;;;;;;16.90;33.30;;;15.04;43.21;102896.19;8291051;28;20400;-88
2022/04/16 16:22:35;;;;;;;;;;;16.60;32.80;;;15.11;42.97;102912.63;8306192;28;20297;-88
2022/04/16 16:26:57;;;;;;;;;;;16.70;33.20;;;15.10;43.15;102917.03;8326220;28;20019;-85
2022/04/16 16:31:20;;;;;;;;;;;16.50;34.20;;;15.08;43.11;102913.59;8296022;28;19925;-89
2022/04/16 16:35:42;;;;;;;;;;;16.50;35.40;;;15.00;43.36;102918.28;8292849;28;20000;-89
2022/04/16 16:40:04;;;;;;;;;;;16.50;34.70;;;14.97;42.66;102921.91;8294176;28;19980;-89
2022/04/16 16:44:27;;;;;;;;;;;16.50;32.90;;;14.78;42.91;102905.09;8295690;28;20000;-89
2022/04/16 16:48:49;;;;;;;;;;;16.40;33.10;;;14.46;43.24;102858.94;8284923;28;20063;-89
2022/04/16 16:53:12;;;;;;;;;;;16.30;34.70;;;14.76;43.23;102917.47;8307570;28;20007;-88
2022/04/16 16:57:38;;;;;;;;;;;16.30;33.50;;;14.59;43.14;102904.94;8287747;28;20025;-88
2022/04/16 17:02:00;;;;;;;;;;;16.20;33.90;;;14.58;42.76;102914.59;8306762;28;20286;-88
2022/04/16 17:06:22;;;;;;;;;;;16.20;33.80;;;14.51;43.00;102913.06;8306074;28;20342;-88
2022/04/16 17:10:45;;;;;;;;;;;16.10;32.70;;;14.45;43.06;102921.19;8316837;28;19939;-88
2022/04/16 17:19:47;;;;;;;;;;;15.90;34.50;;;14.22;42.73;102924.63;8287446;28;20157;-88
2022/04/16 17:24:08;;;;;;;;;;;15.80;35.10;;;14.09;42.71;102911.06;8275837;28;19925;-87
2022/04/16 17:28:31;;;;;;;;;;;15.80;35.10;;;14.06;42.85;102926.06;8284352;28;19917;-87
2022/04/16 17:32:52;;;;;;;;;;;15.70;33.90;;;14.02;42.66;102933.22;8279084;28;20503;-87
2022/04/16 17:37:14;;;;;;;;;;;15.60;35.40;;;13.99;42.78;102943.84;8265265;28;20032;-86
2022/04/16 17:41:36;;;;;;;;;;;15.50;34.80;;;13.86;42.84;102956.50;8292507;28;20011;-87
2022/04/16 17:45:58;;;;;;;;;;;15.40;34.30;;;13.72;42.76;102950.88;8282160;28;19936;-87
2022/04/16 17:50:20;;;;;;;;;;;15.30;35.50;;;13.68;42.89;102959.72;8291811;28;20023;-88
2022/04/16 17:54:41;;;;;;;;;;;15.20;34.70;;;13.67;43.00;102969.38;8283060;28;20007;-87
2022/04/16 17:59:03;;;;;;;;;;;15.20;35.60;;;13.64;42.73;102966.84;8291286;28;20000;-88
2022/04/16 18:03:25;;;;;;;;;;;15.10;35.80;;;13.38;42.91;102941.44;8285534;28;19921;-88
2022/04/16 18:07:46;;;;;;;;;;;15.00;35.10;;;13.41;42.49;102987.72;8292467;28;20077;-88
2022/04/16 18:12:08;;;;;;;;;;;14.90;35.50;;;13.24;42.64;102978.56;8295095;28;20071;-88
2022/04/16 18:16:30;;;;;;;;;;;14.80;33.40;;;13.09;42.83;102971.13;8292091;28;20017;-87
2022/04/16 18:20:52;;;;;;;;;;;14.60;35.00;;;13.05;42.63;102978.25;8279634;28;20004;-88
2022/04/16 18:25:16;;;;;;;;;;;14.30;34.90;;;12.91;42.69;102975.19;8290086;28;20008;-88
2022/04/16 18:29:38;;;;;;;;;;;14.50;35.60;;;12.93;42.69;102991.72;8282664;28;19996;-87
2022/04/16 18:34:01;;;;;;;;;;;14.70;35.60;;;12.83;43.00;102999.00;8293792;28;20081;-88
2022/04/16 18:38:24;;;;;;;;;;;14.30;35.40;;;12.76;42.64;103002.69;8289283;28;20012;-87
2022/04/16 18:42:45;;;;;;;;;;;14.10;35.80;;;12.62;42.45;102995.19;8290253;28;20110;-87
2022/04/16 18:47:07;;;;;;;;;;;14.10;35.10;;;12.55;42.85;103003.25;8281699;28;20020;-87
2022/04/16 18:51:29;;;;;;;;;;;13.90;35.70;;;12.07;42.56;102928.56;8278758;28;20008;-88
2022/04/16 18:55:55;;;;;;;;;;;14.00;35.90;;;12.33;42.68;102990.72;8294417;28;20012;-88
2022/04/16 19:06:51;;;;;;;;;;;13.90;36.50;;;12.35;42.83;102991.56;8302677;28;20008;-87
2022/04/16 19:09:40;;;;;;;;;;;13.90;36.40;;;12.14;42.85;102989.47;8314225;28;20024;-89
2022/04/16 19:14:02;;;;;;;;;;;13.70;36.60;;;12.25;42.83;103021.50;8302774;28;20011;-88
2022/04/16 19:18:25;;;;;;;;;;;13.70;36.80;;;12.19;42.66;103037.38;8321266;28;20008;-89
2022/04/16 19:22:46;;;;;;;;;;;13.70;36.60;;;12.14;43.07;103034.00;8298898;28;20485;-88
2022/04/16 19:27:10;;;;;;;;;;;13.60;37.00;;;11.56;42.70;102943.75;8313239;28;20358;-88
2022/04/16 19:31:32;;;;;;;;;;;13.50;36.90;;;11.97;43.01;103015.25;8318643;28;19999;-88
2022/04/16 19:35:54;;;;;;;;;;;13.50;37.30;;;11.93;42.71;103020.53;8297907;28;19927;-88
2022/04/16 19:40:15;;;;;;;;;;;13.40;37.40;;;11.99;42.98;103024.78;8301087;28;20011;-88
2022/04/16 19:44:37;;;;;;;;;;;13.40;37.60;;;11.87;42.99;103015.44;8292503;28;19921;-87
2022/04/16 19:48:59;;;;;;;;;;;13.40;37.60;;;11.81;42.93;103015.56;8299744;28;20282;-87
2022/04/16 19:53:21;;;;;;;;;;;13.30;37.70;;;11.64;42.99;103009.88;8301928;28;19923;-87
2022/04/16 19:57:43;;;;;;;;;;;13.30;37.70;;;11.68;43.02;103040.31;8313741;28;20055;-86
2022/04/16 20:02:04;;;;;;;;;;;13.20;37.70;;;11.68;42.98;103046.41;8312732;28;20004;-87
2022/04/16 20:06:26;;;;;;;;;;;13.20;37.80;;;11.64;42.66;103049.13;8314065;28;20007;-87
2022/04/16 20:10:54;;;;;;;;;;;13.10;37.90;;;11.37;42.93;103022.69;8300668;28;19996;-87
2022/04/16 20:15:16;;;;;;;;;;;12.90;37.80;;;11.41;42.74;103031.31;8309806;28;20529;-87
2022/04/16 20:19:37;;;;;;;;;;;13.00;38.00;;;11.43;43.29;103055.69;8311288;28;20017;-87
2022/04/16 20:23:59;;;;;;;;;;;12.80;37.90;;;11.28;42.77;103041.16;8319933;28;19921;-87
2022/04/16 20:28:21;;;;;;;;;;;12.80;37.90;;;11.13;42.74;103028.41;8301341;28;20006;-87
2022/04/16 20:32:43;;;;;;;;;;;12.70;38.00;;;11.19;42.87;103047.44;8318316;28;19984;-87
2022/04/16 20:37:05;;;;;;;;;;;12.70;38.00;;;11.03;43.19;103033.81;8300722;28;20016;-87
2022/04/16 20:46:08;;;;;;;;;;;12.50;38.00;;;10.82;42.66;103023.78;8288602;28;20362;-87
2022/04/16 20:50:29;;;;;;;;;;;12.30;37.90;;;10.69;42.91;103030.13;8304617;28;20369;-87
2022/04/16 20:54:52;;;;;;;;;;;12.20;37.90;;;10.53;42.56;103013.88;8294341;28;20004;-87
2022/04/16 20:59:14;;;;;;;;;;;12.00;38.00;;;10.49;43.19;103017.44;8298038;28;20051;-87
2022/04/16 21:03:36;;;;;;;;;;;12.00;38.10;;;10.30;43.04;103002.09;8283062;28;19926;-86
2022/04/16 21:07:57;;;;;;;;;;;11.90;38.00;;;10.15;42.89;103003.19;8316933;28;19917;-87